Czar, Canada
Current Conditions -  °F | °C
As of 2:00 PM on Friday 19 Dec 2014 (Local Time) from CYLL Reporting Station
Broken Clouds Broken Clouds  
Wind Chill:   Ceiling: 25000
Heat Index: 14°   Visibility: 13mi
Dew Point: 10°   Wind: 9mph
Humidity: 86%   Direction: 100°E
Pressure: 29.77"   Gusts: NA
Location:  52.45°N, 110.83°W
Report Text: CYLL 192100Z 10008KT 13SM BKN250 M10/M12 A2977 RMK CI5 SLP133
Loading
Personal Weather Stations






























Interactive Weather Map New forecast layout! Learn more

10-Day Weather Forecast

Advertisements
Track Severe Weather on mobile